Time;durP1;ratioP1;P1;durP2;ratioP2;P2;SDS_P1;SDS_P2;PMS_P1;PMS_P2;Temp;Humidity;BMP_temperature;BMP_pressure;BME280_temperature;BME280_humidity;BME280_pressure;Samples;Min_cycle;Max_cycle;Signal;HPM_P1;HPM_P2
2022/10/28 00:01:58;;;;;;;3.95;1.80;;;;;;;;;;4998084;28;20042;-60
2022/10/28 00:04:24;;;;;;;3.42;1.67;;;;;;;;;;5002246;28;20038;-60
2022/10/28 00:06:49;;;;;;;4.18;1.80;;;;;;;;;;4995472;28;20058;-59
2022/10/28 00:09:15;;;;;;;3.83;1.73;;;;;;;;;;5000436;28;20049;-59
2022/10/28 00:11:40;;;;;;;2.85;1.60;;;;;;;;;;5001439;28;20121;-60
2022/10/28 00:14:06;;;;;;;4.20;2.03;;;;;;;;;;5002405;28;20117;-59
2022/10/28 00:16:33;;;;;;;4.28;1.90;;;;;;;;;;4999863;28;20133;-60
2022/10/28 00:19:00;;;;;;;3.22;1.60;;;;;;;;;;5008424;28;20053;-60
2022/10/28 00:21:28;;;;;;;5.47;1.88;;;;;;;;;;5003281;28;20065;-59
2022/10/28 00:23:53;;;;;;;5.00;1.83;;;;;;;;;;5010393;28;20034;-59
2022/10/28 00:26:22;;;;;;;4.40;1.90;;;;;;;;;;5013863;28;20055;-60
2022/10/28 00:28:53;;;;;;;2.97;1.73;;;;;;;;;;5013625;28;20479;-59
2022/10/28 00:31:20;;;;;;;5.22;2.08;;;;;;;;;;5012933;28;20045;-59
2022/10/28 00:33:46;;;;;;;3.05;1.58;;;;;;;;;;5014021;28;20076;-60
2022/10/28 00:36:24;;;;;;;2.97;1.50;;;;;;;;;;5013534;28;20057;-62
2022/10/28 00:38:51;;;;;;;3.65;1.70;;;;;;;;;;5013796;28;20036;-59
2022/10/28 00:41:28;;;;;;;6.28;1.60;;;;;;;;;;5013913;28;20122;-59
2022/10/28 00:43:59;;;;;;;5.45;1.70;;;;;;;;;;5013855;28;20042;-59
2022/10/28 00:46:38;;;;;;;2.60;1.58;;;;;;;;;;5012266;28;20033;-60
2022/10/28 00:49:31;;;;;;;3.63;1.73;;;;;;;;;;5007274;28;20049;-61
2022/10/28 00:52:01;;;;;;;3.78;1.75;;;;;;;;;;5011575;28;20398;-59
2022/10/28 00:54:27;;;;;;;3.83;1.50;;;;;;;;;;5011524;28;20038;-62
2022/10/28 00:56:54;;;;;;;3.92;1.50;;;;;;;;;;5005440;28;20038;-59
2022/10/28 00:59:30;;;;;;;3.40;1.42;;;;;;;;;;5011481;28;20100;-59
2022/10/28 01:01:55;;;;;;;4.05;1.50;;;;;;;;;;5004164;28;20409;-59
2022/10/28 01:04:21;;;;;;;3.80;1.70;;;;;;;;;;5011902;28;20030;-65
2022/10/28 01:06:47;;;;;;;2.40;1.45;;;;;;;;;;5013492;28;20057;-60
2022/10/28 01:09:12;;;;;;;3.55;1.52;;;;;;;;;;4994036;28;20076;-59
2022/10/28 01:11:47;;;;;;;2.47;1.23;;;;;;;;;;5011272;28;20507;-60
2022/10/28 01:14:31;;;;;;;3.08;1.40;;;;;;;;;;5013496;28;20044;-59
2022/10/28 01:17:33;;;;;;;5.32;1.58;;;;;;;;;;5009885;28;20113;-59
2022/10/28 01:20:17;;;;;;;2.33;1.30;;;;;;;;;;5002920;28;20049;-59
2022/10/28 01:22:54;;;;;;;;;;;;;;;;;;5013657;28;20049;-60
2022/10/28 01:25:25;;;;;;;3.13;1.30;;;;;;;;;;5013444;28;20020;-60
2022/10/28 01:28:21;;;;;;;3.42;2.08;;;;;;;;;;5012896;28;20487;-59
2022/10/28 01:31:01;;;;;;;3.85;1.50;;;;;;;;;;5013125;28;20096;-59
2022/10/28 01:33:35;;;;;;;4.20;1.50;;;;;;;;;;5013345;28;20044;-60
2022/10/28 01:36:13;;;;;;;3.28;1.40;;;;;;;;;;5007560;28;20038;-60
2022/10/28 01:39:06;;;;;;;2.63;1.30;;;;;;;;;;5002511;28;20048;-61
2022/10/28 01:41:38;;;;;;;2.47;1.27;;;;;;;;;;5011935;28;20049;-59
2022/10/28 01:44:37;;;;;;;3.33;1.48;;;;;;;;;;5013148;28;20271;-59
2022/10/28 01:47:08;;;;;;;2.55;1.10;;;;;;;;;;4993782;28;20042;-60
2022/10/28 01:49:41;;;;;;;4.18;1.65;;;;;;;;;;5011831;28;20041;-59
2022/10/28 01:52:11;;;;;;;3.13;1.42;;;;;;;;;;5012056;28;20042;-59
2022/10/28 01:54:37;;;;;;;2.85;1.30;;;;;;;;;;5011493;28;20481;-59
2022/10/28 01:57:04;;;;;;;3.00;1.55;;;;;;;;;;5004589;28;20049;-60
2022/10/28 01:59:30;;;;;;;2.65;1.40;;;;;;;;;;5013143;28;20478;-60
2022/10/28 02:01:55;;;;;;;2.33;1.15;;;;;;;;;;5011760;28;20093;-59
2022/10/28 02:04:21;;;;;;;2.17;1.17;;;;;;;;;;5013354;28;20042;-59
2022/10/28 02:06:49;;;;;;;3.05;1.25;;;;;;;;;;5012580;28;20033;-60
2022/10/28 02:09:31;;;;;;;3.20;1.40;;;;;;;;;;5011474;28;20070;-59
2022/10/28 02:11:56;;;;;;;2.90;1.30;;;;;;;;;;5002170;28;20041;-59
2022/10/28 02:14:30;;;;;;;2.47;1.33;;;;;;;;;;5010123;28;20041;-59
2022/10/28 02:17:14;;;;;;;3.38;1.58;;;;;;;;;;5012036;28;20451;-59
2022/10/28 02:20:16;;;;;;;3.50;1.50;;;;;;;;;;5012914;28;20058;-63
2022/10/28 02:22:49;;;;;;;3.67;1.33;;;;;;;;;;5015082;28;20030;-61
2022/10/28 02:25:40;;;;;;;2.28;1.30;;;;;;;;;;5009514;28;20037;-59
2022/10/28 02:28:12;;;;;;;1.90;0.98;;;;;;;;;;5001990;28;20034;-59
2022/10/28 02:30:43;;;;;;;2.88;1.50;;;;;;;;;;5022611;28;20090;-59
2022/10/28 02:33:11;;;;;;;2.63;1.40;;;;;;;;;;5011343;28;20065;-61
2022/10/28 02:35:49;;;;;;;2.90;1.40;;;;;;;;;;5009553;28;20045;-59
2022/10/28 02:38:20;;;;;;;2.88;1.30;;;;;;;;;;5003150;28;20041;-59
2022/10/28 02:40:50;;;;;;;3.03;1.10;;;;;;;;;;5022359;28;20045;-59
2022/10/28 02:43:16;;;;;;;2.30;1.20;;;;;;;;;;5015891;28;20073;-59
2022/10/28 02:45:44;;;;;;;2.47;1.20;;;;;;;;;;5041164;28;20541;-61
2022/10/28 02:48:19;;;;;;;2.40;1.20;;;;;;;;;;5008699;28;20068;-59
2022/10/28 02:50:49;;;;;;;2.38;1.30;;;;;;;;;;5038109;28;20067;-60
2022/10/28 02:53:27;;;;;;;4.35;1.40;;;;;;;;;;5007239;28;20044;-59
2022/10/28 02:55:54;;;;;;;2.22;1.10;;;;;;;;;;5015624;28;20037;-59
2022/10/28 02:58:19;;;;;;;2.58;1.10;;;;;;;;;;5015395;28;20132;-59
2022/10/28 03:00:46;;;;;;;2.63;1.25;;;;;;;;;;5015422;28;20456;-60
2022/10/28 03:03:12;;;;;;;2.15;1.10;;;;;;;;;;5009802;28;20038;-59
2022/10/28 03:05:37;;;;;;;2.83;1.17;;;;;;;;;;5017522;28;20100;-59
2022/10/28 03:08:03;;;;;;;3.75;1.33;;;;;;;;;;5015430;28;20096;-62
2022/10/28 03:10:28;;;;;;;3.67;1.55;;;;;;;;;;5018790;28;20042;-60
2022/10/28 03:12:53;;;;;;;2.97;1.13;;;;;;;;;;5014876;28;20500;-59
2022/10/28 03:15:19;;;;;;;2.38;1.27;;;;;;;;;;5013216;28;20030;-59
2022/10/28 03:17:44;;;;;;;2.25;1.10;;;;;;;;;;5015287;28;20121;-61
2022/10/28 03:20:10;;;;;;;1.83;0.98;;;;;;;;;;5006213;28;20041;-59
2022/10/28 03:22:35;;;;;;;2.50;1.10;;;;;;;;;;5026717;28;20088;-59
2022/10/28 03:25:00;;;;;;;2.25;1.10;;;;;;;;;;5020101;28;20108;-59
2022/10/28 03:27:26;;;;;;;2.92;1.25;;;;;;;;;;5012744;28;20041;-60
2022/10/28 03:29:51;;;;;;;2.17;1.10;;;;;;;;;;5014803;28;20488;-59
2022/10/28 03:32:17;;;;;;;3.97;1.17;;;;;;;;;;5016816;28;20037;-59
2022/10/28 03:34:42;;;;;;;4.18;1.45;;;;;;;;;;5009893;28;20039;-60
2022/10/28 03:37:07;;;;;;;2.15;1.13;;;;;;;;;;5015186;28;20437;-59
2022/10/28 03:39:33;;;;;;;2.30;1.13;;;;;;;;;;5014859;28;20026;-59
2022/10/28 03:41:58;;;;;;;2.20;1.25;;;;;;;;;;5021145;28;20069;-59
2022/10/28 03:44:23;;;;;;;2.40;1.10;;;;;;;;;;5009537;28;20134;-59
2022/10/28 03:46:49;;;;;;;3.08;1.30;;;;;;;;;;5014227;28;20378;-59
2022/10/28 03:49:14;;;;;;;1.45;0.88;;;;;;;;;;5011918;28;20089;-60
2022/10/28 03:51:40;;;;;;;1.70;1.00;;;;;;;;;;5010608;28;20038;-59
2022/10/28 03:54:05;;;;;;;2.20;1.20;;;;;;;;;;5006076;28;20108;-59
2022/10/28 03:56:30;;;;;;;2.00;0.95;;;;;;;;;;5014873;28;20037;-62
2022/10/28 03:58:56;;;;;;;1.77;1.00;;;;;;;;;;5017998;28;20040;-60
2022/10/28 04:01:21;;;;;;;3.50;1.30;;;;;;;;;;5024859;28;20041;-59
2022/10/28 04:03:47;;;;;;;2.05;1.10;;;;;;;;;;5005655;28;20045;-59
2022/10/28 04:06:13;;;;;;;2.65;1.10;;;;;;;;;;5014434;28;20052;-59
2022/10/28 04:08:38;;;;;;;2.45;1.20;;;;;;;;;;5022089;28;20050;-59
2022/10/28 04:11:04;;;;;;;2.38;0.95;;;;;;;;;;5016886;28;20049;-59
2022/10/28 04:13:29;;;;;;;2.22;1.00;;;;;;;;;;5008665;28;20073;-60
2022/10/28 04:15:55;;;;;;;2.80;1.00;;;;;;;;;;5011750;28;20080;-59
2022/10/28 04:18:20;;;;;;;2.70;1.13;;;;;;;;;;5015011;28;20034;-59
2022/10/28 04:20:46;;;;;;;2.78;1.10;;;;;;;;;;5008937;28;20082;-59
2022/10/28 04:23:17;;;;;;;2.60;0.93;;;;;;;;;;5018103;28;20037;-59
2022/10/28 04:25:42;;;;;;;2.85;1.13;;;;;;;;;;5021830;28;20060;-60
2022/10/28 04:28:08;;;;;;;1.80;0.88;;;;;;;;;;5014174;28;20037;-59
2022/10/28 04:30:33;;;;;;;2.15;1.10;;;;;;;;;;5017792;28;20025;-59
2022/10/28 04:32:58;;;;;;;2.55;1.00;;;;;;;;;;5015734;28;20121;-59
2022/10/28 04:35:24;;;;;;;2.10;1.00;;;;;;;;;;5017019;28;20405;-59
2022/10/28 04:37:49;;;;;;;2.33;0.95;;;;;;;;;;5015512;28;20040;-59
2022/10/28 04:40:15;;;;;;;1.83;0.90;;;;;;;;;;5020923;28;20137;-59
2022/10/28 04:42:40;;;;;;;4.15;1.10;;;;;;;;;;5009418;28;20048;-59
2022/10/28 04:45:07;;;;;;;2.65;1.10;;;;;;;;;;5029135;28;20045;-59
2022/10/28 04:47:32;;;;;;;2.90;1.13;;;;;;;;;;5020670;28;20470;-59
2022/10/28 04:49:57;;;;;;;3.92;1.00;;;;;;;;;;5012019;28;20044;-59
2022/10/28 04:52:23;;;;;;;2.38;1.00;;;;;;;;;;5013833;28;20037;-64
2022/10/28 04:54:48;;;;;;;2.28;1.05;;;;;;;;;;5011253;28;20095;-59
2022/10/28 04:57:13;;;;;;;2.15;1.00;;;;;;;;;;5021383;28;20049;-59
2022/10/28 04:59:39;;;;;;;2.10;1.05;;;;;;;;;;5010197;28;20040;-62
2022/10/28 05:02:04;;;;;;;4.78;1.17;;;;;;;;;;5014407;28;20037;-58
2022/10/28 05:04:30;;;;;;;3.33;0.90;;;;;;;;;;5023247;28;20504;-59
2022/10/28 05:06:55;;;;;;;1.60;0.90;;;;;;;;;;5014615;28;20091;-59
2022/10/28 05:09:20;;;;;;;2.28;1.40;;;;;;;;;;5015191;28;20049;-59
2022/10/28 05:11:47;;;;;;;2.25;1.23;;;;;;;;;;5012872;28;20049;-59
2022/10/28 05:14:12;;;;;;;3.55;1.10;;;;;;;;;;5016511;28;20381;-59
2022/10/28 05:16:38;;;;;;;2.47;1.13;;;;;;;;;;5011447;28;20112;-59
2022/10/28 05:19:03;;;;;;;1.60;0.80;;;;;;;;;;5002003;28;20042;-59
2022/10/28 05:21:28;;;;;;;2.28;1.02;;;;;;;;;;5013461;28;20096;-62
2022/10/28 05:23:54;;;;;;;3.08;1.00;;;;;;;;;;5014542;28;20045;-59
2022/10/28 05:26:19;;;;;;;2.28;1.00;;;;;;;;;;5012932;28;20042;-63
2022/10/28 05:28:49;;;;;;;2.50;1.20;;;;;;;;;;5017076;28;20505;-60
2022/10/28 05:31:14;;;;;;;3.33;1.00;;;;;;;;;;5012633;28;20038;-60
2022/10/28 05:33:40;;;;;;;2.72;1.00;;;;;;;;;;5012084;28;20045;-56
2022/10/28 05:36:05;;;;;;;5.32;1.00;;;;;;;;;;5014354;28;20107;-61
2022/10/28 05:38:30;;;;;;;2.35;1.00;;;;;;;;;;5016471;28;20041;-59
2022/10/28 05:40:56;;;;;;;5.07;1.05;;;;;;;;;;5004328;28;20038;-58
2022/10/28 05:43:21;;;;;;;1.75;0.77;;;;;;;;;;5016315;28;20108;-58
2022/10/28 05:45:54;;;;;;;3.70;1.00;;;;;;;;;;5019681;28;20042;-58
2022/10/28 05:48:19;;;;;;;2.23;1.03;;;;;;;;;;5022155;28;20045;-58
2022/10/28 05:50:45;;;;;;;1.88;1.05;;;;;;;;;;5010259;28;20037;-58
2022/10/28 05:53:10;;;;;;;3.38;0.90;;;;;;;;;;5002600;28;20043;-58
2022/10/28 05:55:36;;;;;;;2.58;0.80;;;;;;;;;;5018644;28;20043;-59
2022/10/28 05:58:02;;;;;;;2.05;1.00;;;;;;;;;;5006196;28;20441;-58
2022/10/28 06:00:27;;;;;;;1.98;1.00;;;;;;;;;;5004414;28;20116;-58
2022/10/28 06:03:01;;;;;;;2.58;0.82;;;;;;;;;;5017006;28;20500;-58
2022/10/28 06:05:26;;;;;;;2.10;1.00;;;;;;;;;;5011063;28;20120;-58
2022/10/28 06:07:52;;;;;;;1.90;0.90;;;;;;;;;;5006190;28;20081;-58
2022/10/28 06:10:17;;;;;;;2.20;0.90;;;;;;;;;;5002634;28;20033;-58
2022/10/28 06:12:43;;;;;;;2.28;1.10;;;;;;;;;;5016525;28;20073;-59
2022/10/28 06:15:08;;;;;;;1.45;0.90;;;;;;;;;;5012861;28;20038;-59
2022/10/28 06:17:35;;;;;;;1.77;0.93;;;;;;;;;;5007482;28;20022;-59
2022/10/28 06:20:00;;;;;;;3.25;1.00;;;;;;;;;;5000574;28;20034;-58
2022/10/28 06:22:26;;;;;;;1.92;1.00;;;;;;;;;;5014405;28;20389;-66
2022/10/28 06:24:51;;;;;;;1.88;0.80;;;;;;;;;;5015042;28;20037;-59
2022/10/28 06:27:16;;;;;;;2.40;0.90;;;;;;;;;;5015136;28;20038;-59
2022/10/28 06:29:42;;;;;;;2.60;1.10;;;;;;;;;;5015515;28;20041;-63
2022/10/28 06:32:10;;;;;;;3.10;1.20;;;;;;;;;;5006972;28;20393;-60
2022/10/28 06:34:37;;;;;;;1.88;0.80;;;;;;;;;;5016243;28;20034;-59
2022/10/28 06:37:03;;;;;;;2.03;0.88;;;;;;;;;;5016133;28;20120;-59
2022/10/28 06:39:29;;;;;;;2.55;1.00;;;;;;;;;;5015955;28;20136;-60
2022/10/28 06:41:54;;;;;;;2.40;0.88;;;;;;;;;;5016165;28;20072;-59
2022/10/28 06:44:19;;;;;;;2.47;1.00;;;;;;;;;;5015415;28;20042;-60
2022/10/28 06:46:45;;;;;;;2.88;0.98;;;;;;;;;;5015135;28;20470;-60
2022/10/28 06:49:10;;;;;;;1.75;0.82;;;;;;;;;;5006598;28;20042;-60
2022/10/28 06:51:35;;;;;;;2.47;1.20;;;;;;;;;;5011900;28;20107;-59
2022/10/28 06:54:01;;;;;;;3.35;1.30;;;;;;;;;;5015832;28;20033;-59
2022/10/28 06:56:26;;;;;;;3.60;1.00;;;;;;;;;;5015113;28;20077;-58
2022/10/28 06:58:52;;;;;;;4.32;1.00;;;;;;;;;;5014506;28;20057;-58
2022/10/28 07:01:18;;;;;;;2.15;1.00;;;;;;;;;;5009957;28;20081;-59
2022/10/28 07:03:44;;;;;;;2.35;1.10;;;;;;;;;;5009810;28;20037;-59
2022/10/28 07:06:09;;;;;;;4.25;1.40;;;;;;;;;;5013266;28;20039;-57
2022/10/28 07:08:35;;;;;;;3.20;1.30;;;;;;;;;;5007813;28;20408;-59
2022/10/28 07:11:01;;;;;;;2.95;1.45;;;;;;;;;;5005061;28;20033;-57
2022/10/28 07:13:27;;;;;;;2.42;1.10;;;;;;;;;;5008773;28;20056;-57
2022/10/28 07:15:57;;;;;;;10.07;1.48;;;;;;;;;;5005634;28;20038;-61
2022/10/28 07:18:24;;;;;;;4.93;1.10;;;;;;;;;;5003016;28;20037;-57
2022/10/28 07:20:50;;;;;;;3.58;0.90;;;;;;;;;;5017971;28;20037;-56
2022/10/28 07:23:16;;;;;;;2.17;0.90;;;;;;;;;;5005111;28;20084;-57
2022/10/28 07:25:41;;;;;;;3.63;1.20;;;;;;;;;;5005619;28;20050;-57
2022/10/28 07:28:07;;;;;;;3.72;1.10;;;;;;;;;;5011368;28;20048;-57
2022/10/28 07:30:33;;;;;;;1.65;0.70;;;;;;;;;;5014591;28;20436;-59
2022/10/28 07:32:59;;;;;;;1.85;0.70;;;;;;;;;;5012199;28;20048;-56
2022/10/28 07:35:27;;;;;;;2.85;1.25;;;;;;;;;;5012422;28;20044;-58
2022/10/28 07:37:53;;;;;;;4.47;1.10;;;;;;;;;;5014789;28;20056;-58
2022/10/28 07:40:19;;;;;;;1.70;0.80;;;;;;;;;;5017799;28;20045;-59
2022/10/28 07:42:45;;;;;;;1.60;0.70;;;;;;;;;;5021266;28;20037;-58
2022/10/28 07:45:10;;;;;;;3.05;1.00;;;;;;;;;;5022655;28;20037;-60
2022/10/28 07:47:35;;;;;;;2.35;0.80;;;;;;;;;;5014968;28;20449;-64
2022/10/28 07:50:01;;;;;;;2.45;1.00;;;;;;;;;;5013584;28;20037;-59
2022/10/28 07:52:27;;;;;;;2.38;1.02;;;;;;;;;;5011959;28;20381;-58
2022/10/28 07:54:52;;;;;;;1.88;0.82;;;;;;;;;;5012652;28;20038;-60
2022/10/28 07:57:18;;;;;;;4.90;1.20;;;;;;;;;;5011621;28;20092;-59
2022/10/28 07:59:44;;;;;;;2.13;0.93;;;;;;;;;;5013163;28;20470;-59
2022/10/28 08:02:15;;;;;;;2.47;1.00;;;;;;;;;;5012640;28;20490;-58
2022/10/28 08:04:41;;;;;;;5.03;0.93;;;;;;;;;;5000569;28;20522;-59
2022/10/28 08:07:06;;;;;;;2.83;0.90;;;;;;;;;;5011734;28;20058;-63
2022/10/28 08:09:31;;;;;;;1.58;0.80;;;;;;;;;;5011072;28;20108;-59
2022/10/28 08:11:57;;;;;;;12.95;1.40;;;;;;;;;;5009018;28;20124;-59
2022/10/28 08:14:22;;;;;;;2.30;0.88;;;;;;;;;;5011023;28;20691;-64
2022/10/28 08:16:48;;;;;;;6.90;1.10;;;;;;;;;;5000728;28;20053;-63
2022/10/28 08:19:13;;;;;;;6.50;1.05;;;;;;;;;;5007539;28;20039;-60
2022/10/28 08:21:38;;;;;;;3.88;0.90;;;;;;;;;;5007536;28;20033;-59
2022/10/28 08:24:04;;;;;;;10.20;1.60;;;;;;;;;;5006960;28;20034;-59
2022/10/28 08:26:29;;;;;;;8.57;1.10;;;;;;;;;;5003248;28;20050;-62
2022/10/28 08:28:55;;;;;;;5.97;1.10;;;;;;;;;;5006367;28;20022;-60
2022/10/28 08:31:20;;;;;;;5.35;1.10;;;;;;;;;;5007224;28;20470;-59
2022/10/28 08:33:46;;;;;;;4.68;1.00;;;;;;;;;;5008120;28;20108;-59
2022/10/28 08:36:14;;;;;;;3.15;0.82;;;;;;;;;;5008624;28;20054;-60
2022/10/28 08:38:41;;;;;;;8.35;1.38;;;;;;;;;;5004783;28;20401;-62
2022/10/28 08:41:12;;;;;;;1.77;0.80;;;;;;;;;;5008834;28;20045;-58
2022/10/28 08:44:02;;;;;;;4.28;0.80;;;;;;;;;;5008615;28;20037;-59
2022/10/28 08:46:41;;;;;;;2.33;0.90;;;;;;;;;;4992898;28;20398;-60
2022/10/28 08:49:11;;;;;;;3.65;1.13;;;;;;;;;;5003598;28;20030;-58
2022/10/28 08:51:43;;;;;;;2.92;0.98;;;;;;;;;;5009166;28;20045;-59
2022/10/28 08:54:17;;;;;;;4.95;1.05;;;;;;;;;;5007395;28;20485;-58
2022/10/28 08:56:45;;;;;;;3.50;1.25;;;;;;;;;;5008757;28;20389;-59
2022/10/28 08:59:18;;;;;;;2.63;1.00;;;;;;;;;;5008752;28;20045;-60
2022/10/28 09:01:50;;;;;;;4.88;1.10;;;;;;;;;;5008763;28;20034;-58
2022/10/28 09:04:35;;;;;;;1.92;1.00;;;;;;;;;;4995676;28;20184;-56
2022/10/28 09:07:01;;;;;;;4.68;1.10;;;;;;;;;;5007169;28;20045;-60
2022/10/28 09:09:27;;;;;;;4.35;1.15;;;;;;;;;;5008932;28;20171;-58
2022/10/28 09:12:08;;;;;;;3.22;1.00;;;;;;;;;;4990187;28;20133;-58
2022/10/28 09:14:49;;;;;;;3.38;1.00;;;;;;;;;;5002579;28;20045;-61
2022/10/28 09:17:21;;;;;;;3.30;1.08;;;;;;;;;;5003285;28;20046;-59
2022/10/28 09:19:51;;;;;;;2.17;0.80;;;;;;;;;;5007153;28;20052;-67
2022/10/28 09:22:29;;;;;;;4.78;0.90;;;;;;;;;;5001100;28;20474;-58
2022/10/28 09:25:02;;;;;;;4.07;1.20;;;;;;;;;;4993121;28;20054;-58
2022/10/28 09:27:39;;;;;;;;;;;;;;;;;;4995876;28;20367;-58
2022/10/28 09:30:17;;;;;;;2.60;0.70;;;;;;;;;;5007777;28;19917;-63
2022/10/28 09:32:48;;;;;;;2.47;0.85;;;;;;;;;;4993399;28;20034;-59
2022/10/28 09:35:21;;;;;;;3.03;0.73;;;;;;;;;;5008550;28;20056;-61
2022/10/28 09:38:18;;;;;;;1.02;0.77;;;;;;;;;;5007764;28;20038;-60
2022/10/28 09:40:49;;;;;;;2.47;0.80;;;;;;;;;;5005900;28;20045;-59
2022/10/28 09:43:27;;;;;;;2.63;0.73;;;;;;;;;;5005947;28;20413;-59
2022/10/28 09:45:59;;;;;;;3.58;0.90;;;;;;;;;;5011544;28;20103;-58
2022/10/28 09:48:31;;;;;;;5.15;1.77;;;;;;;;;;5007889;28;20130;-58
2022/10/28 09:50:57;;;;;;;2.50;0.80;;;;;;;;;;5010372;28;20037;-58
2022/10/28 09:53:35;;;;;;;2.03;0.80;;;;;;;;;;5011952;28;20050;-58
2022/10/28 09:56:02;;;;;;;2.75;0.70;;;;;;;;;;5012096;28;20049;-59
2022/10/28 09:58:27;;;;;;;2.55;0.77;;;;;;;;;;5001673;28;20057;-62
2022/10/28 10:00:53;;;;;;;2.55;0.80;;;;;;;;;;4993928;28;20038;-61
2022/10/28 10:03:18;;;;;;;4.40;0.70;;;;;;;;;;5007092;28;20052;-56
2022/10/28 10:05:47;;;;;;;8.50;1.00;;;;;;;;;;5011309;28;20596;-58
2022/10/28 10:08:17;;;;;;;3.42;0.60;;;;;;;;;;4999504;28;20124;-66
2022/10/28 10:11:04;;;;;;;3.97;0.70;;;;;;;;;;5010742;28;20042;-66
2022/10/28 10:13:41;;;;;;;4.70;0.90;;;;;;;;;;5011714;28;20133;-58
2022/10/28 10:16:25;;;;;;;3.70;0.80;;;;;;;;;;5011635;28;20128;-59
2022/10/28 10:18:53;;;;;;;1.55;0.70;;;;;;;;;;5007122;28;20045;-58
2022/10/28 10:21:40;;;;;;;2.88;0.90;;;;;;;;;;5010454;28;20120;-64
2022/10/28 10:24:21;;;;;;;3.40;0.90;;;;;;;;;;5011792;28;20420;-58
2022/10/28 10:26:47;;;;;;;3.60;1.02;;;;;;;;;;4985323;28;20041;-59
2022/10/28 10:29:12;;;;;;;6.15;0.70;;;;;;;;;;4992805;28;20043;-58
2022/10/28 10:31:38;;;;;;;9.48;1.00;;;;;;;;;;4998609;28;20038;-62
2022/10/28 10:34:04;;;;;;;2.38;0.80;;;;;;;;;;4990740;28;20491;-59
2022/10/28 10:36:30;;;;;;;3.55;0.88;;;;;;;;;;5008974;28;20129;-58
2022/10/28 10:38:57;;;;;;;2.47;0.80;;;;;;;;;;5011302;28;20030;-58
2022/10/28 10:41:42;;;;;;;4.45;0.93;;;;;;;;;;5011680;28;20120;-66
2022/10/28 10:44:20;;;;;;;2.42;0.80;;;;;;;;;;5003664;28;20034;-58
2022/10/28 10:46:52;;;;;;;2.90;0.70;;;;;;;;;;5010852;28;20129;-60
2022/10/28 10:49:17;;;;;;;3.05;0.85;;;;;;;;;;5011612;28;20034;-59
2022/10/28 10:51:53;;;;;;;2.33;0.70;;;;;;;;;;4996958;28;20042;-60
2022/10/28 10:54:19;;;;;;;2.33;0.70;;;;;;;;;;5010019;28;20042;-59
2022/10/28 10:56:44;;;;;;;2.42;0.80;;;;;;;;;;5019053;28;20585;-58
2022/10/28 10:59:26;;;;;;;2.38;0.68;;;;;;;;;;5004235;28;20081;-58
2022/10/28 11:01:53;;;;;;;1.63;0.70;;;;;;;;;;4995034;28;20038;-59
2022/10/28 11:04:21;;;;;;;3.35;0.80;;;;;;;;;;5003107;28;20478;-68
2022/10/28 11:06:52;;;;;;;1.58;0.60;;;;;;;;;;4994723;28;20050;-56
2022/10/28 11:09:29;;;;;;;5.70;1.00;;;;;;;;;;5007400;28;20056;-59
2022/10/28 11:11:55;;;;;;;2.17;0.73;;;;;;;;;;5009104;28;20041;-64
2022/10/28 11:14:27;;;;;;;8.52;1.50;;;;;;;;;;5005430;28;20036;-58
2022/10/28 11:16:54;;;;;;;4.53;0.80;;;;;;;;;;5007886;28;20030;-57
2022/10/28 11:19:41;;;;;;;2.78;0.90;;;;;;;;;;5008690;28;20049;-57
2022/10/28 11:22:15;;;;;;;2.03;0.70;;;;;;;;;;5010955;28;20054;-57
2022/10/28 11:24:54;;;;;;;2.85;0.63;;;;;;;;;;5010250;28;20046;-57
2022/10/28 11:27:22;;;;;;;1.75;0.60;;;;;;;;;;5029334;28;20049;-58
2022/10/28 11:29:48;;;;;;;4.05;1.08;;;;;;;;;;5001989;28;20046;-61
2022/10/28 11:32:22;;;;;;;1.92;1.00;;;;;;;;;;5018703;28;20036;-57
2022/10/28 11:35:12;;;;;;;3.67;0.80;;;;;;;;;;5019137;28;20111;-57
2022/10/28 11:37:50;;;;;;;3.10;0.98;;;;;;;;;;5010799;28;20041;-56
2022/10/28 11:40:31;;;;;;;2.35;0.60;;;;;;;;;;5023299;28;20044;-57
2022/10/28 11:43:14;;;;;;;4.50;0.80;;;;;;;;;;5010760;28;20026;-57
2022/10/28 11:46:06;;;;;;;1.80;0.75;;;;;;;;;;5016801;28;20050;-61
2022/10/28 11:48:50;;;;;;;2.60;0.90;;;;;;;;;;5005170;28;20038;-57
2022/10/28 11:51:15;;;;;;;;;;;;;;;;;;5008183;28;20060;-57
2022/10/28 11:54:19;;;;;;;4.40;0.70;;;;;;;;;;5008273;28;20356;-62
2022/10/28 11:56:48;;;;;;;4.07;0.75;;;;;;;;;;4998272;28;20046;-57
2022/10/28 11:59:26;;;;;;;2.28;0.75;;;;;;;;;;5003397;28;20045;-57
2022/10/28 12:02:11;;;;;;;3.20;0.70;;;;;;;;;;5014220;28;20481;-57
2022/10/28 12:05:00;;;;;;;6.25;0.90;;;;;;;;;;4998440;28;20034;-58
2022/10/28 12:08:00;;;;;;;3.80;0.70;;;;;;;;;;4997719;28;20057;-66
2022/10/28 12:10:47;;;;;;;9.18;0.85;;;;;;;;;;4997390;28;20035;-61
2022/10/28 12:13:22;;;;;;;3.08;0.70;;;;;;;;;;5005807;28;20120;-61
2022/10/28 12:15:50;;;;;;;2.72;1.00;;;;;;;;;;5011036;28;20084;-60
2022/10/28 12:18:25;;;;;;;2.25;0.88;;;;;;;;;;5008306;28;20475;-58
2022/10/28 12:20:58;;;;;;;2.40;0.95;;;;;;;;;;5004439;28;20045;-60
2022/10/28 12:23:24;;;;;;;1.95;0.70;;;;;;;;;;5026019;28;20394;-59
2022/10/28 12:25:56;;;;;;;2.50;0.70;;;;;;;;;;5011219;28;20038;-58
2022/10/28 12:28:42;;;;;;;2.20;0.75;;;;;;;;;;5010162;28;20045;-59
2022/10/28 12:31:33;;;;;;;2.15;0.70;;;;;;;;;;5013903;28;20492;-61
2022/10/28 12:34:02;;;;;;;1.88;0.77;;;;;;;;;;5011488;28;20112;-59
2022/10/28 12:36:41;;;;;;;1.95;0.60;;;;;;;;;;5006480;28;20030;-59
2022/10/28 12:39:26;;;;;;;3.78;1.02;;;;;;;;;;5001582;28;20038;-59
2022/10/28 12:42:02;;;;;;;6.28;0.60;;;;;;;;;;5019309;28;20037;-59
2022/10/28 12:44:28;;;;;;;1.52;0.68;;;;;;;;;;5015853;28;20093;-58
2022/10/28 12:47:16;;;;;;;3.08;0.95;;;;;;;;;;5011018;28;20051;-59
2022/10/28 12:50:06;;;;;;;2.90;0.75;;;;;;;;;;5004703;28;20037;-66
2022/10/28 12:52:37;;;;;;;4.13;0.70;;;;;;;;;;5007431;28;20044;-58
2022/10/28 12:56:03;;;;;;;1.33;0.73;;;;;;;;;;5010033;28;20132;-58
2022/10/28 12:58:31;;;;;;;5.85;0.75;;;;;;;;;;4961347;28;20047;-58
2022/10/28 13:01:08;;;;;;;4.20;0.52;;;;;;;;;;5009160;28;20104;-58
2022/10/28 13:03:34;;;;;;;2.45;0.80;;;;;;;;;;5005021;28;20037;-59
2022/10/28 13:06:27;;;;;;;1.35;0.60;;;;;;;;;;5016789;28;20038;-59
2022/10/28 13:09:07;;;;;;;2.70;0.80;;;;;;;;;;5003569;28;20486;-58
2022/10/28 13:11:38;;;;;;;2.38;0.60;;;;;;;;;;5010743;28;20099;-60
2022/10/28 13:14:22;;;;;;;9.05;1.00;;;;;;;;;;5027919;28;20128;-58
2022/10/28 13:17:17;;;;;;;3.47;0.73;;;;;;;;;;5014819;28;20091;-58
2022/10/28 13:20:11;;;;;;;18.88;1.55;;;;;;;;;;4995839;28;20068;-60
2022/10/28 13:22:58;;;;;;;1.83;0.57;;;;;;;;;;5010688;28;20076;-58
2022/10/28 13:25:26;;;;;;;3.50;0.90;;;;;;;;;;5013034;28;20066;-62
2022/10/28 13:27:55;;;;;;;4.05;0.70;;;;;;;;;;5009763;28;20041;-59
2022/10/28 13:30:21;;;;;;;5.85;0.90;;;;;;;;;;5029839;28;20491;-58
2022/10/28 13:32:51;;;;;;;5.45;0.80;;;;;;;;;;5009449;28;20039;-59
2022/10/28 13:35:24;;;;;;;3.10;0.70;;;;;;;;;;5002134;28;20034;-59
2022/10/28 13:37:50;;;;;;;3.45;0.85;;;;;;;;;;5008601;28;20041;-58
2022/10/28 13:40:29;;;;;;;5.35;0.93;;;;;;;;;;5014256;28;20037;-60
2022/10/28 13:42:54;;;;;;;3.00;0.70;;;;;;;;;;5020034;28;20045;-57
2022/10/28 13:45:46;;;;;;;3.40;0.60;;;;;;;;;;5015534;28;20048;-58
2022/10/28 13:48:50;;;;;;;1.63;0.73;;;;;;;;;;5010177;28;20031;-58
2022/10/28 13:51:16;;;;;;;;;;;;;;;;;;5005241;28;20041;-58
2022/10/28 13:54:01;;;;;;;4.00;0.60;;;;;;;;;;5014879;28;19920;-58
2022/10/28 13:56:32;;;;;;;5.55;0.90;;;;;;;;;;5008930;28;20046;-58
2022/10/28 13:59:19;;;;;;;2.40;0.60;;;;;;;;;;5010290;28;20052;-57
2022/10/28 14:01:51;;;;;;;1.88;0.70;;;;;;;;;;5008732;28;20133;-57
2022/10/28 14:04:26;;;;;;;1.67;0.70;;;;;;;;;;5010907;28;20486;-57
2022/10/28 14:07:00;;;;;;;3.70;0.73;;;;;;;;;;5011234;28;20401;-58
2022/10/28 14:09:29;;;;;;;1.88;0.65;;;;;;;;;;4999736;28;20042;-61
2022/10/28 14:12:03;;;;;;;2.00;0.63;;;;;;;;;;5020284;28;20060;-59
2022/10/28 14:14:29;;;;;;;4.72;0.90;;;;;;;;;;4995692;28;20046;-58
2022/10/28 14:16:54;;;;;;;3.15;0.70;;;;;;;;;;4999090;28;20407;-59
2022/10/28 14:19:21;;;;;;;2.85;0.77;;;;;;;;;;5017004;28;20029;-59
2022/10/28 14:21:52;;;;;;;1.08;0.50;;;;;;;;;;5004257;28;20042;-58
2022/10/28 14:24:36;;;;;;;2.08;0.70;;;;;;;;;;5011357;28;20040;-58
2022/10/28 14:27:05;;;;;;;2.78;0.80;;;;;;;;;;5016902;28;20406;-59
2022/10/28 14:29:41;;;;;;;1.58;0.55;;;;;;;;;;5010353;28;20092;-58
2022/10/28 14:32:31;;;;;;;1.85;0.70;;;;;;;;;;5017267;28;20034;-58
2022/10/28 14:35:09;;;;;;;4.25;1.08;;;;;;;;;;5015833;28;21001;-59
2022/10/28 14:37:46;;;;;;;2.05;0.77;;;;;;;;;;5008430;28;20041;-58
2022/10/28 14:40:27;;;;;;;1.80;0.60;;;;;;;;;;5024732;28;20112;-58
2022/10/28 14:43:04;;;;;;;2.38;0.65;;;;;;;;;;5015115;28;20482;-58
2022/10/28 14:45:53;;;;;;;2.92;0.65;;;;;;;;;;5010149;28;20138;-59
2022/10/28 14:48:27;;;;;;;1.85;0.88;;;;;;;;;;5004331;28;20041;-59
2022/10/28 14:50:53;;;;;;;2.75;0.85;;;;;;;;;;5016405;28;20049;-58
2022/10/28 14:53:28;;;;;;;2.40;0.80;;;;;;;;;;5021072;28;20041;-59
2022/10/28 14:56:06;;;;;;;1.38;0.50;;;;;;;;;;5009261;28;20109;-58
2022/10/28 14:58:40;;;;;;;2.75;0.80;;;;;;;;;;5038967;28;20030;-58
2022/10/28 15:01:17;;;;;;;2.03;0.70;;;;;;;;;;5016293;28;20030;-59
2022/10/28 15:03:45;;;;;;;1.45;0.43;;;;;;;;;;5010236;28;20034;-60
2022/10/28 15:06:30;;;;;;;2.55;0.90;;;;;;;;;;5033631;28;20550;-62
2022/10/28 15:09:01;;;;;;;1.58;0.55;;;;;;;;;;5010884;28;20070;-58